Time;durP1;ratioP1;P1;durP2;ratioP2;P2;SDS_P1;SDS_P2;PMS_P1;PMS_P2;Temp;Humidity;BMP_temperature;BMP_pressure;BME280_temperature;BME280_humidity;BME280_pressure;Samples;Min_cycle;Max_cycle;Signal;HPM_P1;HPM_P2
2022/07/08 00:00:30;;;;;;;5.10;4.57;;;14.80;99.90;14.10;100524;;;;584333;243;24012;-80
2022/07/08 00:02:58;;;;;;;4.37;3.93;;;14.70;99.90;14.10;100525;;;;584313;243;24082;-80
2022/07/08 00:05:31;;;;;;;5.20;4.70;;;14.60;99.90;14.00;100519;;;;584338;243;24088;-83
2022/07/08 00:07:56;;;;;;;5.20;4.70;;;14.60;99.90;14.00;100521;;;;584182;243;24042;-80
2022/07/08 00:10:24;;;;;;;6.53;6.03;;;14.50;99.90;13.90;100522;;;;579053;243;45725;-82
2022/07/08 00:12:51;;;;;;;6.23;5.63;;;14.50;99.90;13.90;100519;;;;584116;243;24081;-79
2022/07/08 00:15:21;;;;;;;5.83;5.23;;;14.50;99.90;13.80;100522;;;;584180;243;24245;-79
2022/07/08 00:17:47;;;;;;;5.97;5.47;;;14.40;99.90;13.70;100519;;;;584091;243;24098;-79
2022/07/08 00:20:19;;;;;;;6.27;5.40;;;14.30;99.90;13.70;100530;;;;583995;243;24075;-79
2022/07/08 00:22:46;;;;;;;5.57;5.03;;;14.30;99.90;13.70;100534;;;;583675;243;24079;-79
2022/07/08 00:25:11;;;;;;;4.90;4.43;;;14.30;99.90;13.60;100524;;;;583662;243;24058;-80
2022/07/08 00:27:39;;;;;;;5.23;4.73;;;14.20;99.90;13.60;100526;;;;584088;243;24106;-79
2022/07/08 00:30:08;;;;;;;6.93;5.17;;;14.20;99.90;13.60;100518;;;;584092;243;25071;-80
2022/07/08 00:32:37;;;;;;;6.03;5.10;;;14.20;99.90;13.60;100524;;;;593130;242;24068;-79
2022/07/08 00:35:06;;;;;;;6.50;5.10;;;14.10;99.90;13.50;100526;;;;584041;243;24074;-79
2022/07/08 00:37:34;;;;;;;10.87;5.30;;;14.10;99.90;13.50;100519;;;;583963;243;25099;-81
2022/07/08 00:40:02;;;;;;;6.10;5.47;;;14.10;99.90;13.50;100524;;;;583764;243;24011;-79
2022/07/08 00:42:30;;;;;;;5.70;5.17;;;14.10;99.90;13.40;100517;;;;583624;243;24040;-78
2022/07/08 00:44:58;;;;;;;6.73;5.97;;;14.00;99.90;13.40;100523;;;;584755;242;24006;-79
2022/07/08 00:47:26;;;;;;;6.33;5.73;;;14.00;99.90;13.40;100526;;;;584875;242;24032;-80
2022/07/08 00:49:54;;;;;;;5.97;5.37;;;14.00;99.90;13.40;100524;;;;584576;242;24042;-80
2022/07/08 00:52:21;;;;;;;7.30;5.43;;;14.00;99.90;13.40;100509;;;;584593;242;26315;-81
2022/07/08 00:54:54;;;;;;;6.33;5.33;;;14.00;99.90;13.30;100522;;;;584276;238;24066;-78
2022/07/08 00:57:19;;;;;;;8.00;6.70;;;14.00;99.90;13.40;100522;;;;583913;243;24043;-78
2022/07/08 00:59:48;;;;;;;9.23;5.90;;;14.00;99.90;13.40;100511;;;;584256;243;24070;-78
2022/07/08 01:02:16;;;;;;;9.43;6.57;;;13.90;99.90;13.40;100518;;;;584387;243;24012;-79
2022/07/08 01:04:44;;;;;;;8.63;6.83;;;13.90;99.90;13.40;100512;;;;584020;243;24055;-79
2022/07/08 01:07:12;;;;;;;8.23;6.93;;;14.00;99.90;13.40;100515;;;;583965;243;24020;-79
2022/07/08 01:09:40;;;;;;;8.20;7.23;;;14.00;99.90;13.50;100525;;;;584046;243;24072;-79
2022/07/08 01:12:08;;;;;;;9.23;6.77;;;14.00;99.90;13.50;100524;;;;593110;242;24000;-79
2022/07/08 01:14:36;;;;;;;8.37;6.90;;;14.10;99.90;13.50;100528;;;;593239;242;24077;-78
2022/07/08 01:17:04;;;;;;;9.97;6.77;;;14.10;99.90;13.60;100521;;;;584020;243;24016;-79
2022/07/08 01:19:34;;;;;;;8.00;6.83;;;14.10;99.90;13.60;100526;;;;583818;243;24091;-81
2022/07/08 01:22:06;;;;;;;9.27;7.17;;;14.20;99.90;13.60;100521;;;;583758;243;24017;-81
2022/07/08 01:24:30;;;;;;;11.07;6.87;;;14.20;99.90;13.70;100522;;;;583466;243;24075;-81
2022/07/08 01:26:59;;;;;;;8.17;6.23;;;14.30;99.90;13.70;100526;;;;583782;243;24045;-79
2022/07/08 01:29:30;;;;;;;13.20;7.20;;;14.20;99.90;13.70;100525;;;;583707;243;24005;-78
2022/07/08 01:31:55;;;;;;;8.63;7.30;;;14.30;99.90;13.70;100527;;;;583482;243;24053;-79
2022/07/08 01:34:23;;;;;;;11.27;7.53;;;14.30;99.90;13.80;100530;;;;583654;243;24074;-79
2022/07/08 01:36:52;;;;;;;9.67;6.67;;;14.40;99.90;13.80;100524;;;;583585;243;24014;-79
2022/07/08 01:39:21;;;;;;;9.10;6.13;;;14.40;99.90;13.90;100525;;;;583753;243;24021;-79
2022/07/08 01:41:49;;;;;;;7.37;6.67;;;14.40;99.90;13.90;100519;;;;583915;243;24053;-80
2022/07/08 01:44:16;;;;;;;11.83;6.63;;;14.50;99.90;14.00;100516;;;;584121;243;24096;-80
2022/07/08 01:46:45;;;;;;;11.27;7.50;;;14.50;99.90;14.00;100517;;;;584056;243;24005;-80
2022/07/08 01:49:14;;;;;;;8.00;7.20;;;14.60;99.90;14.00;100521;;;;584132;243;24080;-80
2022/07/08 01:51:44;;;;;;;9.53;7.20;;;14.60;99.90;14.10;100518;;;;584012;243;24035;-81
2022/07/08 01:54:08;;;;;;;9.07;7.13;;;14.60;99.90;14.10;100528;;;;583598;243;24076;-79
2022/07/08 01:56:36;;;;;;;10.87;6.93;;;14.70;99.90;14.20;100517;;;;584826;242;24046;-79
2022/07/08 01:59:04;;;;;;;13.37;7.07;;;14.80;99.90;14.20;100526;;;;584860;242;24030;-80
2022/07/08 02:01:33;;;;;;;12.40;9.90;;;14.90;99.90;14.30;100516;;;;579720;242;34928;-81
2022/07/08 02:04:01;;;;;;;8.93;7.60;;;14.80;99.90;14.30;100516;;;;584863;242;24037;-80
2022/07/08 02:06:31;;;;;;;10.13;6.87;;;14.90;99.90;14.40;100529;;;;584127;243;24082;-81
2022/07/08 02:08:56;;;;;;;7.03;6.40;;;15.00;99.90;14.40;100520;;;;584134;243;24061;-81
2022/07/08 02:14:11;;;;;;;10.27;6.07;;;15.00;99.90;14.50;100514;;;;584248;243;24039;-81
2022/07/08 02:16:38;;;;;;;8.90;6.43;;;15.10;99.90;14.50;100519;;;;583965;243;24036;-79
2022/07/08 02:19:06;;;;;;;9.63;8.73;;;15.10;99.90;14.60;100521;;;;578899;243;34871;-79
2022/07/08 02:21:34;;;;;;;7.80;7.00;;;15.10;99.90;14.60;100524;;;;583909;243;23998;-81
2022/07/08 02:24:02;;;;;;;8.40;6.87;;;15.10;99.90;14.60;100521;;;;584080;243;24093;-80
2022/07/08 02:26:30;;;;;;;7.97;6.60;;;15.20;99.90;14.60;100526;;;;583943;243;24026;-79
2022/07/08 02:28:58;;;;;;;6.53;5.53;;;15.20;99.90;14.60;100528;;;;583864;243;24021;-83
2022/07/08 02:31:26;;;;;;;6.87;6.17;;;15.20;99.90;14.70;100533;;;;583965;243;23996;-81
2022/07/08 02:33:54;;;;;;;5.83;5.37;;;15.30;99.90;14.70;100533;;;;583676;243;24088;-81
2022/07/08 02:36:23;;;;;;;6.20;5.60;;;15.40;99.90;14.80;100536;;;;583804;243;24035;-81
2022/07/08 02:38:52;;;;;;;8.80;5.73;;;15.40;99.90;14.80;100532;;;;583654;243;24064;-82
2022/07/08 02:41:20;;;;;;;6.87;5.03;;;15.40;99.90;14.90;100538;;;;584065;243;24051;-82
2022/07/08 02:43:48;;;;;;;6.83;5.80;;;15.50;99.90;14.90;100533;;;;584102;243;24065;-81
2022/07/08 02:46:16;;;;;;;7.63;6.03;;;15.50;99.90;14.90;100535;;;;584056;243;25115;-81
2022/07/08 02:48:43;;;;;;;6.20;5.07;;;15.50;99.90;15.00;100527;;;;584145;243;24092;-80
2022/07/08 02:51:12;;;;;;;5.93;5.43;;;15.60;99.90;15.00;100528;;;;584063;243;24079;-80
2022/07/08 02:53:39;;;;;;;7.37;5.87;;;15.60;99.90;15.10;100528;;;;584152;243;25104;-79
2022/07/08 02:56:07;;;;;;;4.97;4.57;;;15.60;99.90;15.10;100538;;;;583794;243;24043;-78
2022/07/08 02:58:35;;;;;;;5.27;4.87;;;15.70;99.90;15.10;100534;;;;584125;243;24102;-79
2022/07/08 03:01:03;;;;;;;8.53;5.63;;;15.70;99.90;15.20;100534;;;;583617;243;24050;-79
2022/07/08 03:03:31;;;;;;;5.50;5.00;;;15.80;99.90;15.20;100540;;;;583565;243;24125;-79
2022/07/08 03:05:59;;;;;;;7.33;5.47;;;15.80;99.90;15.30;100533;;;;583804;243;24021;-80
2022/07/08 03:08:27;;;;;;;5.27;4.87;;;15.80;99.90;15.30;100538;;;;584851;242;24004;-79
2022/07/08 03:10:55;;;;;;;6.80;4.73;;;15.90;99.90;15.30;100541;;;;585048;242;24077;-80
2022/07/08 03:13:23;;;;;;;5.90;4.60;;;16.00;99.90;15.40;100540;;;;584659;242;24003;-79
2022/07/08 03:15:52;;;;;;;6.37;5.27;;;16.00;99.90;15.50;100547;;;;584460;242;24021;-79
2022/07/08 03:18:20;;;;;;;5.40;4.60;;;16.00;99.90;15.50;100548;;;;584302;243;24015;-79
2022/07/08 03:20:48;;;;;;;6.63;4.90;;;16.10;99.90;15.50;100552;;;;584229;243;24037;-79
2022/07/08 03:23:16;;;;;;;5.93;4.70;;;16.10;99.90;15.60;100556;;;;584273;243;24082;-79
2022/07/08 03:25:44;;;;;;;4.90;4.40;;;16.20;99.90;15.60;100557;;;;584104;243;24073;-79
2022/07/08 03:28:12;;;;;;;4.67;4.27;;;16.20;99.90;15.70;100563;;;;584337;243;24031;-80
2022/07/08 03:30:40;;;;;;;4.90;4.50;;;16.30;99.90;15.70;100558;;;;584011;243;24007;-80
2022/07/08 03:33:07;;;;;;;4.50;4.10;;;16.30;99.90;15.80;100564;;;;583904;243;24002;-79
2022/07/08 03:35:36;;;;;;;4.13;3.83;;;16.40;99.90;15.80;100568;;;;584054;243;24017;-79
2022/07/08 03:38:04;;;;;;;4.80;4.40;;;16.40;99.90;15.90;100567;;;;583950;243;24054;-79
2022/07/08 03:43:19;;;;;;;5.57;4.07;;;16.60;99.90;16.00;100566;;;;584319;243;24113;-80
2022/07/08 03:45:50;;;;;;;6.10;4.33;;;16.70;99.90;16.10;100570;;;;584118;243;24041;-78
2022/07/08 03:48:18;;;;;;;4.87;4.40;;;16.70;99.90;16.20;100572;;;;583698;243;24034;-78
2022/07/08 03:50:43;;;;;;;6.70;4.67;;;16.80;99.90;16.30;100573;;;;583767;243;24091;-78
2022/07/08 03:53:11;;;;;;;4.87;4.47;;;16.90;99.90;16.40;100570;;;;584032;243;24024;-79
2022/07/08 03:55:39;;;;;;;4.23;3.83;;;16.90;99.90;16.40;100564;;;;583866;242;24020;-79
2022/07/08 03:58:07;;;;;;;5.90;4.20;;;17.00;99.90;16.50;100571;;;;593208;242;24020;-79
2022/07/08 04:00:36;;;;;;;4.60;4.20;;;17.20;99.90;16.60;100564;;;;583988;243;24016;-78
2022/07/08 04:03:04;;;;;;;6.53;4.70;;;17.20;99.90;16.80;100566;;;;583770;243;24047;-79
2022/07/08 04:05:31;;;;;;;5.53;4.00;;;17.30;99.90;16.90;100571;;;;583612;243;24052;-80
2022/07/08 04:07:59;;;;;;;5.30;4.00;;;17.50;99.90;17.00;100572;;;;583576;243;24109;-79
2022/07/08 04:10:27;;;;;;;6.77;3.63;;;17.60;99.90;17.20;100576;;;;583636;243;24017;-81
2022/07/08 04:12:55;;;;;;;5.77;4.13;;;17.70;99.90;17.30;100565;;;;583569;243;24075;-79
2022/07/08 04:15:23;;;;;;;4.47;4.10;;;17.80;99.90;17.40;100571;;;;583794;243;24096;-80
2022/07/08 04:17:52;;;;;;;4.47;4.03;;;18.10;99.90;17.60;100590;;;;583631;243;24016;-81
2022/07/08 04:20:20;;;;;;;5.10;3.33;;;18.10;99.90;17.70;100587;;;;584897;242;24074;-82
2022/07/08 04:22:48;;;;;;;5.10;3.87;;;18.20;99.90;17.80;100592;;;;584833;242;24024;-82
2022/07/08 04:25:16;;;;;;;3.77;3.47;;;18.40;99.90;17.90;100597;;;;584418;242;24024;-82
2022/07/08 04:27:43;;;;;;;3.13;2.93;;;18.40;99.90;18.00;100593;;;;584539;242;24035;-82
2022/07/08 04:30:11;;;;;;;4.70;3.83;;;18.60;99.90;18.20;100591;;;;584247;243;24038;-80
2022/07/08 04:32:39;;;;;;;14.80;3.93;;;18.70;99.90;18.30;100597;;;;593402;242;24009;-80
2022/07/08 04:35:07;;;;;;;5.30;3.43;;;18.80;99.90;18.30;100601;;;;584123;243;24070;-79
2022/07/08 04:37:35;;;;;;;13.27;3.73;;;18.90;99.90;18.40;100599;;;;593417;242;24111;-79
2022/07/08 04:40:03;;;;;;;3.83;3.47;;;19.00;99.90;18.50;100594;;;;584036;243;24005;-81
2022/07/08 04:42:31;;;;;;;7.67;3.60;;;19.10;99.90;18.50;100595;;;;583898;243;24035;-81
2022/07/08 04:44:59;;;;;;;3.50;3.20;;;19.10;99.90;18.70;100590;;;;584366;243;24000;-81
2022/07/08 04:47:27;;;;;;;5.30;3.40;;;19.20;99.90;18.70;100602;;;;584381;243;24050;-78
2022/07/08 04:49:55;;;;;;;4.30;3.43;;;19.30;99.90;18.80;100597;;;;584397;243;24040;-80
2022/07/08 04:52:23;;;;;;;3.50;3.20;;;19.40;99.90;18.90;100597;;;;584385;243;24052;-79
2022/07/08 04:54:52;;;;;;;6.80;3.43;;;19.50;99.90;18.90;100596;;;;584282;239;24055;-79
2022/07/08 04:57:20;;;;;;;6.73;3.57;;;19.40;99.90;19.00;100592;;;;584074;243;24062;-78
2022/07/08 04:59:48;;;;;;;3.50;3.20;;;19.50;99.90;19.10;100594;;;;584083;243;25123;-78
2022/07/08 05:02:16;;;;;;;5.20;4.00;;;19.60;99.90;19.20;100597;;;;579010;243;34845;-78
2022/07/08 05:04:44;;;;;;;6.50;3.93;;;19.70;99.90;19.40;100594;;;;583703;243;24017;-79
2022/07/08 05:07:12;;;;;;;6.07;4.20;;;19.80;99.90;19.50;100603;;;;583593;243;24037;-78
2022/07/08 05:09:40;;;;;;;4.13;3.70;;;20.00;99.90;19.60;100603;;;;583737;243;24010;-79
2022/07/08 05:12:07;;;;;;;6.50;3.13;;;20.10;99.90;19.60;100612;;;;583580;243;24043;-79
2022/07/08 05:14:35;;;;;;;5.32;3.80;;;20.20;99.90;19.70;100609;;;;587726;242;34800;-78
2022/07/08 05:17:03;;;;;;;6.40;3.60;;;20.30;99.90;19.60;100609;;;;583636;243;24005;-78
2022/07/08 05:19:31;;;;;;;4.33;3.80;;;20.20;99.90;19.60;100611;;;;583746;243;24031;-79
2022/07/08 05:21:59;;;;;;;5.50;3.90;;;20.20;99.90;19.70;100612;;;;583669;243;24118;-79
2022/07/08 05:24:28;;;;;;;3.33;3.10;;;20.30;99.90;19.70;100614;;;;583565;243;24017;-81
2022/07/08 05:26:56;;;;;;;3.67;3.40;;;20.30;99.90;19.70;100615;;;;583764;243;24035;-79
2022/07/08 05:29:24;;;;;;;4.57;3.23;;;20.30;99.90;19.80;100610;;;;583643;243;24005;-79
2022/07/08 05:31:53;;;;;;;3.17;2.97;;;20.40;99.90;19.80;100613;;;;585137;242;24049;-80
2022/07/08 05:34:21;;;;;;;4.00;3.50;;;20.40;99.90;19.80;100619;;;;584859;242;24031;-80
2022/07/08 05:36:48;;;;;;;5.80;3.90;;;20.40;99.90;19.80;100624;;;;584689;242;24066;-79
2022/07/08 05:39:16;;;;;;;4.03;3.70;;;20.40;99.90;19.80;100626;;;;593726;242;24041;-78
2022/07/08 05:41:44;;;;;;;4.33;3.40;;;20.40;99.90;19.80;100627;;;;584175;243;24027;-78
2022/07/08 05:44:12;;;;;;;4.47;3.50;;;20.30;99.90;19.80;100614;;;;584337;243;23036;-80
2022/07/08 05:46:41;;;;;;;6.00;3.87;;;20.30;99.90;19.80;100619;;;;584611;243;24035;-78
2022/07/08 05:49:09;;;;;;;8.37;3.30;;;20.30;99.90;19.80;100617;;;;584517;243;24008;-79
2022/07/08 05:51:37;;;;;;;4.83;3.20;;;20.20;99.90;19.80;100620;;;;584314;243;24018;-79
2022/07/08 05:54:05;;;;;;;4.07;3.47;;;20.30;99.90;19.90;100625;;;;584375;243;23992;-80
2022/07/08 05:56:33;;;;;;;3.23;2.93;;;20.40;99.90;19.90;100621;;;;584002;242;24055;-79
2022/07/08 05:59:01;;;;;;;6.73;3.17;;;20.40;99.90;20.00;100624;;;;583940;243;24012;-82
2022/07/08 06:01:29;;;;;;;3.67;3.23;;;20.40;99.90;20.00;100621;;;;584071;243;24039;-80
2022/07/08 06:03:57;;;;;;;2.43;2.33;;;20.50;99.90;20.10;100617;;;;583968;243;24083;-80
2022/07/08 06:06:25;;;;;;;3.63;3.17;;;20.60;99.90;20.10;100624;;;;583802;243;24039;-80
2022/07/08 06:08:53;;;;;;;4.43;3.17;;;20.70;99.90;20.20;100614;;;;583724;243;24049;-81
2022/07/08 06:11:20;;;;;;;3.43;2.70;;;20.60;99.90;20.20;100617;;;;583588;243;24048;-80
2022/07/08 06:13:49;;;;;;;4.43;2.97;;;20.70;99.90;20.20;100625;;;;583825;243;24085;-80
2022/07/08 06:16:16;;;;;;;5.47;2.77;;;20.70;99.90;20.40;100634;;;;583662;243;24009;-81
2022/07/08 06:18:44;;;;;;;4.87;2.90;;;20.80;99.90;20.60;100628;;;;592941;242;24044;-81
2022/07/08 06:21:12;;;;;;;2.43;2.23;;;21.10;99.90;21.20;100633;;;;583644;243;23997;-81
2022/07/08 06:23:40;;;;;;;4.90;2.50;;;21.60;99.90;22.30;100626;;;;583556;243;23039;-81
2022/07/08 06:26:08;;;;;;;7.07;2.30;;;22.50;99.90;23.90;100630;;;;583648;243;23044;-80
2022/07/08 06:28:37;;;;;;;6.63;2.23;;;26.40;99.90;26.30;100634;;;;583667;243;24068;-80
2022/07/08 06:31:05;;;;;;;3.20;2.37;;;27.20;99.90;26.80;100638;;;;583773;243;24008;-81
2022/07/08 06:33:34;;;;;;;5.80;1.90;;;27.10;99.90;26.40;100637;;;;583643;243;24047;-81
2022/07/08 06:36:02;;;;;;;2.13;1.70;;;27.10;99.90;25.60;100637;;;;583554;243;24002;-80
2022/07/08 06:38:30;;;;;;;2.57;2.07;;;26.50;99.90;24.80;100643;;;;583756;243;23062;-82
2022/07/08 06:40:58;;;;;;;1.40;1.40;;;25.80;99.90;24.10;100644;;;;583550;243;24105;-82
2022/07/08 06:43:26;;;;;;;1.00;1.00;;;25.10;99.90;23.70;100645;;;;584961;242;24003;-81
2022/07/08 06:45:54;;;;;;;1.50;1.10;;;24.50;99.90;23.30;100645;;;;584780;242;24021;-80
2022/07/08 06:48:22;;;;;;;2.20;0.90;;;23.80;99.90;23.20;100649;;;;584893;242;24005;-80
2022/07/08 06:50:51;;;;;;;1.47;1.20;;;24.50;99.90;24.40;100638;;;;584898;242;24073;-80
2022/07/08 06:53:20;;;;;;;1.10;1.10;;;26.80;99.90;27.10;100644;;;;584720;243;23091;-80
2022/07/08 06:55:47;;;;;;;1.77;0.90;;;26.80;99.90;28.80;100646;;;;584363;242;23068;-82
2022/07/08 06:58:16;;;;;;;0.93;0.93;;;28.80;99.90;29.40;100654;;;;584234;243;24086;-82
2022/07/08 07:00:43;;;;;;;7.40;0.90;;;29.80;98.90;29.20;100653;;;;584123;243;23025;-81
2022/07/08 07:03:11;;;;;;;4.97;0.60;;;29.90;95.80;28.40;100645;;;;583898;243;23031;-79
2022/07/08 07:05:39;;;;;;;0.60;0.60;;;29.30;94.70;27.50;100654;;;;584355;243;23012;-80
2022/07/08 07:08:07;;;;;;;5.00;0.73;;;28.50;95.20;26.40;100657;;;;583833;243;24097;-80
2022/07/08 07:10:36;;;;;;;2.03;0.67;;;27.50;96.00;25.60;100656;;;;583859;243;23033;-80
2022/07/08 07:13:03;;;;;;;4.93;2.07;;;26.60;97.70;24.90;100652;;;;584062;243;24022;-79
2022/07/08 07:15:31;;;;;;;6.23;3.43;;;25.80;99.30;24.20;100660;;;;583917;243;23082;-79
2022/07/08 07:17:59;;;;;;;2.27;0.80;;;25.00;99.90;23.70;100668;;;;584023;243;24073;-79
2022/07/08 07:20:27;;;;;;;0.77;0.70;;;24.50;99.90;23.70;100665;;;;583693;243;24052;-80
2022/07/08 07:22:55;;;;;;;0.40;0.40;;;24.30;99.90;23.50;100671;;;;583636;243;23096;-81
2022/07/08 07:25:22;;;;;;;0.60;0.60;;;24.00;99.90;23.40;100667;;;;583710;243;24047;-80
2022/07/08 07:27:51;;;;;;;5.33;0.77;;;23.90;99.90;23.50;100671;;;;583676;243;24011;-82
2022/07/08 07:30:26;;;;;;;1.30;0.67;;;23.90;99.90;23.70;100675;;;;583808;243;24044;-80
2022/07/08 07:32:53;;;;;;;2.43;0.70;;;24.00;99.90;23.50;100677;;;;583613;243;24005;-82
2022/07/08 07:35:20;;;;;;;3.57;1.00;;;24.00;99.90;23.40;100684;;;;592931;242;24000;-80
2022/07/08 07:37:48;;;;;;;5.83;0.80;;;23.90;99.90;23.40;100684;;;;583714;243;24052;-80
2022/07/08 07:40:16;;;;;;;1.33;0.93;;;23.90;99.90;23.50;100689;;;;583619;243;24010;-81
2022/07/08 07:42:44;;;;;;;0.73;0.50;;;23.90;99.90;23.40;100691;;;;583764;243;24035;-82
2022/07/08 07:45:12;;;;;;;0.70;0.60;;;23.90;99.90;23.20;100691;;;;583624;243;24044;-82
2022/07/08 07:47:40;;;;;;;0.70;0.70;;;23.70;99.90;23.00;100695;;;;584068;243;24093;-80
2022/07/08 07:50:08;;;;;;;1.47;1.37;;;23.50;99.90;22.80;100697;;;;584050;243;24047;-79
2022/07/08 07:52:36;;;;;;;1.90;0.60;;;23.30;99.90;22.70;100700;;;;593214;242;24067;-80
2022/07/08 07:55:08;;;;;;;0.60;0.60;;;22.90;99.90;22.40;100695;;;;585268;242;24026;-79
2022/07/08 07:57:33;;;;;;;0.77;0.73;;;22.90;99.90;22.00;100698;;;;584713;242;24019;-80
2022/07/08 08:00:00;;;;;;;1.77;0.70;;;22.60;99.90;21.70;100692;;;;584584;242;24073;-82
2022/07/08 08:02:28;;;;;;;3.33;0.90;;;22.30;99.90;21.40;100705;;;;584495;242;24019;-81
2022/07/08 08:04:56;;;;;;;1.90;0.90;;;22.00;99.90;21.10;100714;;;;584376;243;24126;-80
2022/07/08 08:07:24;;;;;;;1.57;0.77;;;21.70;99.90;20.80;100711;;;;584231;243;24015;-81
2022/07/08 08:09:52;;;;;;;1.00;1.00;;;21.30;99.90;20.60;100716;;;;584115;243;23057;-80
2022/07/08 08:12:20;;;;;;;1.73;0.70;;;21.10;99.90;20.50;100710;;;;584137;243;23034;-80
2022/07/08 08:14:48;;;;;;;1.23;0.97;;;21.00;99.90;20.40;100715;;;;583906;243;23030;-80
2022/07/08 08:17:16;;;;;;;1.43;0.80;;;20.90;99.90;20.40;100713;;;;584080;243;24077;-80
2022/07/08 08:19:44;;;;;;;0.80;0.80;;;20.90;99.90;20.50;100716;;;;584081;243;24021;-80
2022/07/08 08:22:12;;;;;;;1.13;1.13;;;20.90;99.90;20.50;100724;;;;584417;243;23084;-79
2022/07/08 08:24:40;;;;;;;2.90;1.00;;;21.00;99.90;20.60;100716;;;;584234;243;24097;-79
2022/07/08 08:27:08;;;;;;;0.87;0.80;;;21.10;99.90;20.70;100731;;;;584113;243;24019;-80
2022/07/08 08:29:36;;;;;;;1.10;1.00;;;21.20;99.90;20.80;100730;;;;583891;243;24038;-80
2022/07/08 08:32:04;;;;;;;2.60;0.90;;;21.20;99.90;20.70;100725;;;;583642;243;24070;-80
2022/07/08 08:34:32;;;;;;;0.80;0.80;;;21.20;99.90;20.70;100730;;;;583709;243;24022;-80
2022/07/08 08:36:59;;;;;;;1.70;0.67;;;21.20;99.90;20.60;100736;;;;583697;243;23033;-81
2022/07/08 08:39:27;;;;;;;2.40;1.30;;;21.10;99.90;20.40;100735;;;;583538;243;23049;-80
2022/07/08 08:41:55;;;;;;;0.77;0.77;;;20.90;99.90;20.30;100740;;;;583741;243;24049;-80
2022/07/08 08:44:23;;;;;;;1.47;0.83;;;20.80;99.90;20.20;100747;;;;583658;243;24017;-81
2022/07/08 08:46:51;;;;;;;2.37;0.67;;;20.70;99.90;20.20;100736;;;;583710;243;24090;-82
2022/07/08 08:49:22;;;;;;;0.80;0.40;;;20.70;99.90;20.10;100736;;;;584016;243;24074;-80
2022/07/08 08:51:50;;;;;;;0.60;0.60;;;20.70;99.90;20.20;100748;;;;583725;243;24042;-81
2022/07/08 08:54:21;;;;;;;0.97;0.70;;;20.80;99.90;20.30;100747;;;;584017;243;24064;-81
2022/07/08 08:56:49;;;;;;;2.10;0.97;;;20.70;99.90;20.20;100755;;;;592435;238;24110;-81
2022/07/08 08:59:20;;;;;;;1.50;0.60;;;20.70;99.90;20.10;100752;;;;584068;243;24062;-81
2022/07/08 09:01:45;;;;;;;0.50;0.50;;;20.60;99.90;19.90;100754;;;;583870;243;24071;-80
2022/07/08 09:04:14;;;;;;;0.80;0.80;;;20.10;99.90;19.70;100754;;;;584097;243;24076;-81
2022/07/08 09:06:42;;;;;;;1.63;0.87;;;20.00;99.90;19.50;100743;;;;585325;242;24085;-82
2022/07/08 09:09:11;;;;;;;0.83;0.83;;;20.00;99.90;19.50;100747;;;;585218;242;24033;-81
2022/07/08 09:11:39;;;;;;;1.13;0.83;;;20.00;99.90;19.70;100752;;;;584503;242;24016;-81
2022/07/08 09:14:21;;;;;;;2.47;0.70;;;20.10;99.90;19.80;100752;;;;584295;242;24039;-79
2022/07/08 09:17:12;;;;;;;1.67;0.70;;;20.30;99.90;20.00;100747;;;;584294;243;24040;-81
2022/07/08 09:19:39;;;;;;;0.80;0.80;;;20.40;99.90;20.20;100748;;;;584604;243;24020;-82
2022/07/08 09:22:07;;;;;;;2.67;0.97;;;20.70;99.90;20.30;100761;;;;584432;243;23043;-81
2022/07/08 09:24:39;;;;;;;1.50;0.77;;;20.80;99.90;20.50;100753;;;;584380;243;24020;-80
2022/07/08 09:27:08;;;;;;;0.73;0.73;;;21.00;99.90;20.80;100749;;;;584355;243;23044;-82
2022/07/08 09:29:33;;;;;;;0.60;0.60;;;21.20;99.90;21.70;100750;;;;584195;243;23028;-80
2022/07/08 09:32:14;;;;;;;0.87;0.87;;;22.90;99.90;22.60;100756;;;;584454;243;23025;-82
2022/07/08 09:34:42;;;;;;;0.53;0.53;;;22.90;99.90;23.70;100745;;;;584525;243;24145;-81
2022/07/08 09:37:13;;;;;;;2.97;0.67;;;24.00;99.90;25.30;100754;;;;584515;243;24048;-78
2022/07/08 09:39:41;;;;;;;3.67;0.50;;;25.40;99.90;27.90;100757;;;;584293;243;23038;-80
2022/07/08 09:42:09;;;;;;;3.40;0.60;;;28.00;99.90;30.00;100759;;;;584315;243;23057;-80
2022/07/08 09:44:39;;;;;;;0.85;0.50;;;30.20;99.70;32.10;100752;;;;584097;243;23117;-80
2022/07/08 09:47:11;;;;;;;0.68;0.52;;;32.40;91.00;33.30;100752;;;;583947;243;23047;-80
2022/07/08 09:49:46;;;;;;;0.57;0.57;;;33.90;75.90;33.30;100761;;;;583567;243;23035;-80
2022/07/08 09:52:22;;;;;;;2.95;0.40;;;33.30;69.20;31.80;100765;;;;592867;241;23042;-82
2022/07/08 09:55:00;;;;;;;0.47;0.40;;;32.60;68.90;31.40;100769;;;;592509;239;23100;-81
2022/07/08 09:57:31;;;;;;;1.55;0.40;;;32.50;68.80;30.20;100765;;;;583521;243;24101;-80
2022/07/08 09:59:56;;;;;;;1.65;0.30;;;30.80;71.30;29.80;100766;;;;583281;243;23039;-80
2022/07/08 10:02:25;;;;;;;1.30;0.30;;;30.40;71.60;29.60;100774;;;;592982;242;23072;-80
2022/07/08 10:04:53;;;;;;;0.30;0.30;;;30.30;73.20;29.70;100776;;;;583776;243;24072;-80
2022/07/08 10:07:21;;;;;;;0.45;0.40;;;30.30;73.20;29.50;100794;;;;584293;243;23108;-81
2022/07/08 10:09:49;;;;;;;0.52;0.47;;;30.20;72.30;28.60;100776;;;;583940;243;23039;-82
2022/07/08 10:12:18;;;;;;;2.53;0.60;;;29.50;72.40;27.90;100790;;;;583782;243;23027;-80
2022/07/08 10:14:49;;;;;;;0.40;0.40;;;28.80;75.10;27.70;100802;;;;583643;243;24082;-80
2022/07/08 10:17:14;;;;;;;2.60;0.50;;;28.00;76.20;27.40;100793;;;;584300;242;23060;-82
2022/07/08 10:19:46;;;;;;;2.13;0.33;;;27.90;77.60;27.30;100796;;;;585207;242;24055;-78
2022/07/08 10:22:10;;;;;;;2.23;0.60;;;27.80;77.00;27.00;100790;;;;584424;242;23026;-82
2022/07/08 10:24:38;;;;;;;4.30;0.60;;;27.60;77.70;27.00;100792;;;;584635;242;23144;-82
2022/07/08 10:27:06;;;;;;;1.87;0.50;;;27.50;78.90;26.90;100782;;;;593716;241;23086;-81
2022/07/08 10:29:36;;;;;;;1.10;0.70;;;27.40;79.20;26.90;100795;;;;593524;241;23032;-82
2022/07/08 10:32:05;;;;;;;0.40;0.40;;;27.40;78.70;26.40;100787;;;;584589;243;23059;-80
2022/07/08 10:34:34;;;;;;;1.17;0.50;;;26.70;81.30;26.10;100791;;;;584275;243;24050;-82
2022/07/08 10:37:02;;;;;;;0.87;0.67;;;26.70;81.30;26.10;100791;;;;593508;242;23021;-80
2022/07/08 10:39:39;;;;;;;0.60;0.40;;;26.60;81.90;26.30;100793;;;;593301;242;23026;-80
2022/07/08 10:42:07;;;;;;;2.27;0.50;;;26.80;81.30;26.30;100790;;;;584350;243;23025;-79
2022/07/08 10:44:46;;;;;;;1.13;0.37;;;26.50;82.60;25.90;100794;;;;584113;243;23049;-82
2022/07/08 10:47:16;;;;;;;0.67;0.50;;;26.50;82.60;25.60;100802;;;;584551;243;23053;-80
2022/07/08 10:49:44;;;;;;;1.07;0.50;;;26.10;84.60;25.00;100800;;;;584536;243;24037;-80
2022/07/08 10:52:15;;;;;;;0.83;0.40;;;25.70;85.70;24.70;100801;;;;584290;243;23028;-81
2022/07/08 10:54:40;;;;;;;1.43;0.40;;;25.30;86.70;24.60;100796;;;;583853;239;24057;-80
2022/07/08 10:57:27;;;;;;;0.37;0.37;;;25.30;87.60;24.80;100806;;;;584427;243;24086;-80
2022/07/08 11:00:16;;;;;;;0.73;0.70;;;25.20;87.50;25.00;100798;;;;584171;243;24057;-81
2022/07/08 11:02:44;;;;;;;1.10;0.50;;;25.40;87.70;25.20;100803;;;;584346;243;24037;-79
2022/07/08 11:05:36;;;;;;;0.70;0.60;;;25.60;86.00;25.40;100803;;;;584256;243;24078;-81
2022/07/08 11:08:26;;;;;;;0.37;0.37;;;25.80;83.20;25.40;100802;;;;584223;243;23065;-80
2022/07/08 11:10:55;;;;;;;1.47;0.43;;;25.80;83.00;25.50;100796;;;;583885;243;24086;-80
2022/07/08 11:13:22;;;;;;;0.40;0.40;;;26.00;81.70;25.60;100800;;;;583878;243;24032;-80
2022/07/08 11:15:53;;;;;;;2.83;0.50;;;26.00;81.70;25.50;100813;;;;593162;242;23041;-81
2022/07/08 11:18:21;;;;;;;2.13;0.67;;;25.90;80.10;25.30;100810;;;;583622;243;23023;-83
2022/07/08 11:20:49;;;;;;;0.57;0.40;;;25.80;78.90;25.10;100818;;;;583704;243;24028;-82